createdAt,value
2018-08-31T00:01:54.020Z,15.6
2018-08-31T00:17:14.669Z,15.7
2018-08-31T00:32:32.167Z,15.7
2018-08-31T00:47:47.850Z,15.6
2018-08-31T01:02:52.722Z,15.5
2018-08-31T01:18:20.708Z,15.5
2018-08-31T01:33:37.237Z,15.3
2018-08-31T01:48:53.520Z,15.1
2018-08-31T02:04:09.791Z,14.9
2018-08-31T02:19:20.943Z,14.7
2018-08-31T02:34:42.068Z,14.5
2018-08-31T02:49:58.109Z,14.4
2018-08-31T03:05:14.107Z,14.3
2018-08-31T03:20:17.628Z,14.1
2018-08-31T03:35:46.037Z,14
2018-08-31T03:51:01.893Z,13.9
2018-08-31T04:06:17.637Z,13.7
2018-08-31T04:21:33.859Z,13.7
2018-08-31T04:36:43.748Z,13.6
2018-08-31T04:52:04.909Z,13.7
2018-08-31T05:07:20.696Z,13.9
2018-08-31T05:22:36.555Z,14
2018-08-31T05:37:40.283Z,14.2
2018-08-31T05:53:08.763Z,14.5
2018-08-31T06:08:24.760Z,14.8
2018-08-31T06:23:41.194Z,14.9
2018-08-31T06:38:48.322Z,15.2
2018-08-31T06:54:13.593Z,15.3
2018-08-31T07:09:30.625Z,15.6
2018-08-31T07:24:47.390Z,15.9
2018-08-31T07:40:01.197Z,16.1
2018-08-31T07:55:20.349Z,16.3
2018-08-31T08:10:37.137Z,16.5
2018-08-31T08:25:54.499Z,17.1
2018-08-31T08:41:06.784Z,17.2
2018-08-31T08:56:28.962Z,17.1
2018-08-31T09:11:46.041Z,17.1
2018-08-31T09:27:03.457Z,16.9
2018-08-31T09:42:10.074Z,17.3
2018-08-31T09:57:38.122Z,17.8
2018-08-31T10:12:55.371Z,18.4
2018-08-31T10:28:13.437Z,18.9
2018-08-31T10:43:32.039Z,19.4
2018-08-31T10:58:46.231Z,20.2
2018-08-31T11:14:08.779Z,21.1
2018-08-31T11:29:27.673Z,21.1
2018-08-31T11:44:46.796Z,21.5
2018-08-31T11:59:52.590Z,21.7
2018-08-31T12:15:25.531Z,21.8
2018-08-31T12:30:46.191Z,22.2
2018-08-31T12:46:06.514Z,22.5
2018-08-31T13:01:26.539Z,22.5
2018-08-31T13:16:33.502Z,22.6
2018-08-31T13:32:06.467Z,22.5
2018-08-31T13:47:25.988Z,22.2
2018-08-31T14:02:45.613Z,22.6
2018-08-31T14:18:05.632Z,22.4
2018-08-31T14:33:14.900Z,21.7
2018-08-31T14:48:43.588Z,20.6
2018-08-31T15:04:02.536Z,20.2
2018-08-31T15:19:20.529Z,19.9
2018-08-31T15:34:39.776Z,19.7
2018-08-31T15:49:52.738Z,19.7
2018-08-31T16:05:15.439Z,19.6
2018-08-31T16:20:33.882Z,19.6
2018-08-31T16:35:52.484Z,19.5
2018-08-31T16:50:57.501Z,19.3
2018-08-31T17:06:28.389Z,19.1
2018-08-31T17:21:46.472Z,18.9
2018-08-31T17:37:04.395Z,18.8
2018-08-31T17:52:22.013Z,18.6
2018-08-31T18:07:32.680Z,18.5
2018-08-31T18:22:57.591Z,18.3
2018-08-31T18:54:06.274Z,18.1
2018-08-31T19:09:37.850Z,18
2018-08-31T19:25:05.952Z,17.8
2018-08-31T19:40:23.941Z,17.7
2018-08-31T19:55:40.806Z,17.8
2018-08-31T20:10:58.223Z,17.7
2018-08-31T20:26:10.580Z,17.6
2018-08-31T20:41:33.204Z,17.4
2018-08-31T20:56:50.646Z,17.2
2018-08-31T21:12:07.949Z,17.1
2018-08-31T21:27:12.432Z,17
2018-08-31T21:42:41.702Z,17
2018-08-31T21:58:00.557Z,16.9
2018-08-31T22:13:16.724Z,16.9
2018-08-31T22:28:33.336Z,16.8
2018-08-31T22:43:44.190Z,16.7
2018-08-31T22:59:07.509Z,16.6
2018-08-31T23:14:24.082Z,16.5
2018-08-31T23:29:41.552Z,16.4
2018-08-31T23:44:44.091Z,16.2
